Time;durP1;ratioP1;P1;durP2;ratioP2;P2;SDS_P1;SDS_P2;PMS_P1;PMS_P2;Temp;Humidity;BMP_temperature;BMP_pressure;BME280_temperature;BME280_humidity;BME280_pressure;Samples;Min_cycle;Max_cycle;Signal;HPM_P1;HPM_P2
2023/01/05 00:02:02;;;;;;;20.48;3.25;;;;;;;;;;5024585;28;20416;-69
2023/01/05 00:04:29;;;;;;;21.92;3.88;;;;;;;;;;5022725;28;20045;-69
2023/01/05 00:06:56;;;;;;;19.08;3.85;;;;;;;;;;5027491;28;20041;-70
2023/01/05 00:09:22;;;;;;;24.35;2.67;;;;;;;;;;5025724;28;20181;-70
2023/01/05 00:23:01;;;;;;;14.13;2.67;;;;;;;;;;5019560;28;20082;-66
2023/01/05 00:25:29;;;;;;;9.25;2.65;;;;;;;;;;5014929;28;21938;-66
2023/01/05 00:27:57;;;;;;;13.10;2.80;;;;;;;;;;5008373;28;20082;-66
2023/01/05 00:30:25;;;;;;;7.55;2.20;;;;;;;;;;5023373;28;20034;-66
2023/01/05 00:32:52;;;;;;;13.52;2.13;;;;;;;;;;5028139;28;20060;-66
2023/01/05 00:35:19;;;;;;;7.65;2.20;;;;;;;;;;5033727;28;20563;-66
2023/01/05 00:37:46;;;;;;;9.30;2.40;;;;;;;;;;5026586;28;20044;-66
2023/01/05 00:40:14;;;;;;;12.23;2.60;;;;;;;;;;5026877;28;20042;-66
2023/01/05 00:42:41;;;;;;;11.02;2.47;;;;;;;;;;5027323;28;20080;-67
2023/01/05 00:45:09;;;;;;;8.00;2.30;;;;;;;;;;5026076;28;20053;-68
2023/01/05 00:47:36;;;;;;;7.18;1.90;;;;;;;;;;5027504;28;20046;-66
2023/01/05 00:50:02;;;;;;;14.63;2.72;;;;;;;;;;5028362;28;20037;-68
2023/01/05 00:52:29;;;;;;;6.30;1.77;;;;;;;;;;5026191;28;20406;-66
2023/01/05 00:54:56;;;;;;;11.48;2.60;;;;;;;;;;5024961;28;20045;-67
2023/01/05 00:57:22;;;;;;;19.95;2.40;;;;;;;;;;5025643;28;20045;-67
2023/01/05 00:59:49;;;;;;;10.73;2.78;;;;;;;;;;5023631;28;20037;-67
2023/01/05 01:02:16;;;;;;;9.90;1.92;;;;;;;;;;5036776;28;20033;-68
2023/01/05 01:04:42;;;;;;;5.60;1.65;;;;;;;;;;5027966;28;20059;-68
2023/01/05 01:07:09;;;;;;;16.15;2.17;;;;;;;;;;5026334;28;20055;-69
2023/01/05 01:09:36;;;;;;;18.00;2.22;;;;;;;;;;5024887;28;20132;-67
2023/01/05 01:12:02;;;;;;;8.05;1.50;;;;;;;;;;5022378;28;20083;-69
2023/01/05 01:14:29;;;;;;;7.50;1.90;;;;;;;;;;5039533;28;20139;-65
2023/01/05 01:16:56;;;;;;;5.32;1.40;;;;;;;;;;5044342;28;20040;-67
2023/01/05 01:19:24;;;;;;;8.27;1.55;;;;;;;;;;5045283;28;20045;-67
2023/01/05 01:21:51;;;;;;;8.52;1.65;;;;;;;;;;5045323;28;20044;-66
2023/01/05 01:24:19;;;;;;;4.78;1.40;;;;;;;;;;5043967;28;20127;-65
2023/01/05 01:26:45;;;;;;;6.10;1.52;;;;;;;;;;5046054;28;20040;-66
2023/01/05 01:29:12;;;;;;;8.40;1.42;;;;;;;;;;5044695;28;20555;-65
2023/01/05 01:31:38;;;;;;;8.05;1.45;;;;;;;;;;5043793;28;20044;-67
2023/01/05 01:34:05;;;;;;;5.07;1.00;;;;;;;;;;5047254;28;20044;-67
2023/01/05 01:36:32;;;;;;;6.15;1.10;;;;;;;;;;5044954;28;20036;-68
2023/01/05 01:38:58;;;;;;;11.18;1.52;;;;;;;;;;5028888;28;20037;-68
2023/01/05 01:41:25;;;;;;;13.98;1.80;;;;;;;;;;5045271;28;20036;-67
2023/01/05 01:43:53;;;;;;;12.73;1.42;;;;;;;;;;5045365;28;20572;-68
2023/01/05 01:46:20;;;;;;;7.55;1.52;;;;;;;;;;5045362;28;20041;-68
2023/01/05 01:48:53;;;;;;;8.85;1.55;;;;;;;;;;5047639;28;20031;-67
2023/01/05 01:51:22;;;;;;;7.50;1.33;;;;;;;;;;5045774;28;20056;-68
2023/01/05 01:53:55;;;;;;;6.50;1.40;;;;;;;;;;5045326;28;20074;-68
2023/01/05 01:56:24;;;;;;;9.93;1.40;;;;;;;;;;5045639;28;20128;-68
2023/01/05 01:58:51;;;;;;;6.88;1.40;;;;;;;;;;5046272;28;20051;-68
2023/01/05 02:01:18;;;;;;;16.73;1.52;;;;;;;;;;5044870;28;20037;-71
2023/01/05 02:03:45;;;;;;;7.38;1.70;;;;;;;;;;5043462;28;20055;-67
2023/01/05 02:06:12;;;;;;;3.92;1.33;;;;;;;;;;5043807;28;20041;-67
2023/01/05 02:08:38;;;;;;;8.38;1.95;;;;;;;;;;5045947;28;20102;-68
2023/01/05 02:11:15;;;;;;;6.25;1.38;;;;;;;;;;5045071;28;20032;-66
2023/01/05 02:13:44;;;;;;;8.18;1.42;;;;;;;;;;5045316;28;20040;-66
2023/01/05 02:16:11;;;;;;;12.15;1.63;;;;;;;;;;5043849;28;20494;-68
2023/01/05 02:18:40;;;;;;;7.93;1.75;;;;;;;;;;5043291;28;20048;-69
2023/01/05 02:21:27;;;;;;;4.68;1.40;;;;;;;;;;5044603;28;20033;-68
2023/01/05 02:24:03;;;;;;;4.40;1.33;;;;;;;;;;5044063;28;20379;-68
2023/01/05 02:26:48;;;;;;;10.10;2.28;;;;;;;;;;5043478;28;20052;-69
2023/01/05 02:29:38;;;;;;;5.18;1.20;;;;;;;;;;5044477;28;20048;-68
2023/01/05 02:32:12;;;;;;;5.97;1.52;;;;;;;;;;5044923;28;20048;-67
2023/01/05 02:34:58;;;;;;;8.70;2.13;;;;;;;;;;5042888;28;20041;-66
2023/01/05 02:37:46;;;;;;;10.73;1.63;;;;;;;;;;5044523;28;20047;-66
2023/01/05 02:40:32;;;;;;;5.32;1.80;;;;;;;;;;5044252;28;20032;-67
2023/01/05 02:43:00;;;;;;;8.15;2.15;;;;;;;;;;5037182;28;20167;-66
2023/01/05 02:45:26;;;;;;;14.65;2.17;;;;;;;;;;5041427;28;20045;-67
2023/01/05 02:47:53;;;;;;;16.95;3.35;;;;;;;;;;5045338;28;20849;-67
2023/01/05 02:50:23;;;;;;;21.73;4.03;;;;;;;;;;5043200;28;20401;-67
2023/01/05 02:52:49;;;;;;;14.18;3.42;;;;;;;;;;5042076;28;20044;-68
2023/01/05 02:55:18;;;;;;;10.70;3.67;;;;;;;;;;5042094;28;20044;-67
2023/01/05 02:57:57;;;;;;;21.40;4.82;;;;;;;;;;5044000;28;20049;-67
2023/01/05 03:00:32;;;;;;;13.50;4.25;;;;;;;;;;5041865;28;20041;-68
2023/01/05 03:03:09;;;;;;;20.20;3.83;;;;;;;;;;5043277;28;20037;-68
2023/01/05 03:05:40;;;;;;;12.68;4.13;;;;;;;;;;5042300;28;21922;-67
2023/01/05 03:08:20;;;;;;;16.85;3.97;;;;;;;;;;5045231;28;20049;-70
2023/01/05 03:13:43;;;;;;;30.75;5.75;;;;;;;;;;5028002;28;20149;-69
2023/01/05 03:16:11;;;;;;;19.27;4.47;;;;;;;;;;5029252;28;20041;-65
2023/01/05 03:19:35;;;;;;;12.02;3.80;;;;;;;;;;5024325;28;20036;-67
2023/01/05 03:21:29;;;;;;;14.30;4.50;;;;;;;;;;5024860;28;20486;-71
2023/01/05 03:35:33;;;;;;;10.77;3.10;;;;;;;;;;5026768;28;20678;-67
2023/01/05 03:38:18;;;;;;;15.48;3.45;;;;;;;;;;5031825;28;20043;-68
2023/01/05 03:40:45;;;;;;;13.80;3.78;;;;;;;;;;5026941;28;20063;-68
2023/01/05 03:43:12;;;;;;;12.93;3.10;;;;;;;;;;5028603;28;20039;-69
2023/01/05 03:45:41;;;;;;;10.60;3.25;;;;;;;;;;5025821;28;20079;-68
2023/01/05 03:48:08;;;;;;;16.27;3.00;;;;;;;;;;5039241;28;20623;-68
2023/01/05 03:50:35;;;;;;;10.63;2.58;;;;;;;;;;5028539;28;20398;-68
2023/01/05 03:53:02;;;;;;;9.30;2.85;;;;;;;;;;5027596;28;20032;-68
2023/01/05 03:55:29;;;;;;;8.38;2.78;;;;;;;;;;5025530;28;20120;-68
2023/01/05 03:57:55;;;;;;;7.43;3.00;;;;;;;;;;5027742;28;20045;-65
2023/01/05 04:00:23;;;;;;;14.43;3.40;;;;;;;;;;5026706;28;20044;-66
2023/01/05 04:02:50;;;;;;;15.27;2.75;;;;;;;;;;5026200;28;20036;-67
2023/01/05 04:05:17;;;;;;;9.13;2.20;;;;;;;;;;5027946;28;20542;-68
2023/01/05 04:07:44;;;;;;;10.88;3.10;;;;;;;;;;5027922;28;20037;-68
2023/01/05 04:10:11;;;;;;;11.32;2.65;;;;;;;;;;5028613;28;20045;-67
2023/01/05 04:12:37;;;;;;;10.05;3.33;;;;;;;;;;5027267;28;20048;-67
2023/01/05 04:15:05;;;;;;;22.88;3.92;;;;;;;;;;5026163;28;20063;-66
2023/01/05 04:17:32;;;;;;;10.50;2.67;;;;;;;;;;5026483;28;20435;-66
2023/01/05 04:19:58;;;;;;;9.95;3.33;;;;;;;;;;5027771;28;20136;-66
2023/01/05 04:22:25;;;;;;;9.00;3.15;;;;;;;;;;5026465;28;20041;-66
2023/01/05 04:24:51;;;;;;;13.50;3.05;;;;;;;;;;5024839;28;20173;-66
2023/01/05 04:27:18;;;;;;;5.60;2.15;;;;;;;;;;5027037;28;20967;-68
2023/01/05 04:29:45;;;;;;;14.20;2.35;;;;;;;;;;5024031;28;20533;-68
2023/01/05 04:32:12;;;;;;;8.13;2.63;;;;;;;;;;5027230;28;20045;-68
2023/01/05 04:34:38;;;;;;;11.32;2.28;;;;;;;;;;5027132;28;20033;-68
2023/01/05 04:37:05;;;;;;;14.25;2.80;;;;;;;;;;5027508;28;20084;-69
2023/01/05 04:39:32;;;;;;;10.90;3.25;;;;;;;;;;5025722;28;20502;-68
2023/01/05 04:41:58;;;;;;;10.68;2.35;;;;;;;;;;5031578;28;21768;-69
2023/01/05 04:44:25;;;;;;;7.95;2.67;;;;;;;;;;5028185;28;20461;-67
2023/01/05 04:46:52;;;;;;;6.20;2.38;;;;;;;;;;5042683;28;20397;-66
2023/01/05 04:49:18;;;;;;;10.30;2.45;;;;;;;;;;5027785;28;20433;-68
2023/01/05 04:51:45;;;;;;;7.18;2.55;;;;;;;;;;5025269;28;20401;-68
2023/01/05 04:54:11;;;;;;;6.63;2.72;;;;;;;;;;5027000;28;20156;-66
2023/01/05 04:56:38;;;;;;;4.97;2.20;;;;;;;;;;5025028;28;20044;-68
2023/01/05 04:59:05;;;;;;;11.65;2.67;;;;;;;;;;5026399;28;20700;-68
2023/01/05 05:01:31;;;;;;;14.80;2.70;;;;;;;;;;5025074;28;20045;-68
2023/01/05 05:03:58;;;;;;;10.40;2.65;;;;;;;;;;5025790;28;20049;-68
2023/01/05 05:06:25;;;;;;;8.07;2.55;;;;;;;;;;5024753;28;20526;-71
2023/01/05 05:08:51;;;;;;;7.97;2.33;;;;;;;;;;5025988;28;20065;-69
2023/01/05 05:11:18;;;;;;;11.55;3.05;;;;;;;;;;5027827;28;20191;-69
2023/01/05 05:13:45;;;;;;;7.07;2.30;;;;;;;;;;5026747;28;20497;-69
2023/01/05 05:16:11;;;;;;;10.50;2.58;;;;;;;;;;5027681;28;20041;-70
2023/01/05 05:18:38;;;;;;;11.68;2.60;;;;;;;;;;5029019;28;20034;-69
2023/01/05 05:21:05;;;;;;;11.18;2.10;;;;;;;;;;5025942;28;20405;-70
2023/01/05 05:23:31;;;;;;;14.70;2.80;;;;;;;;;;5025149;28;20041;-69
2023/01/05 05:25:58;;;;;;;12.18;3.10;;;;;;;;;;5026905;28;20067;-69
2023/01/05 05:28:27;;;;;;;5.40;2.00;;;;;;;;;;5026840;28;20041;-68
2023/01/05 05:30:57;;;;;;;1.80;0.90;;;;;;;;;;5025617;28;20038;-69
2023/01/05 05:33:24;;;;;;;7.80;1.67;;;;;;;;;;5025114;28;20389;-67
2023/01/05 05:35:51;;;;;;;10.20;1.67;;;;;;;;;;5026890;28;20052;-69
2023/01/05 05:38:17;;;;;;;4.93;1.65;;;;;;;;;;5026202;28;20036;-69
2023/01/05 05:40:44;;;;;;;13.13;2.55;;;;;;;;;;5026097;28;20130;-68
2023/01/05 05:43:11;;;;;;;8.65;1.65;;;;;;;;;;5025242;28;20037;-68
2023/01/05 05:45:37;;;;;;;8.57;1.90;;;;;;;;;;5025225;28;20445;-68
2023/01/05 05:48:05;;;;;;;6.38;1.33;;;;;;;;;;5023441;28;20116;-68
2023/01/05 05:50:32;;;;;;;18.13;1.75;;;;;;;;;;5034384;28;21770;-68
2023/01/05 05:52:58;;;;;;;12.75;2.10;;;;;;;;;;5047699;28;20044;-67
2023/01/05 05:55:25;;;;;;;6.30;1.42;;;;;;;;;;5047151;28;20040;-67
2023/01/05 05:57:52;;;;;;;4.32;1.40;;;;;;;;;;5049529;28;20037;-67
2023/01/05 06:00:18;;;;;;;10.82;1.65;;;;;;;;;;5047367;28;20093;-69
2023/01/05 06:02:45;;;;;;;3.45;1.38;;;;;;;;;;5047821;28;20045;-68
2023/01/05 06:05:12;;;;;;;11.43;1.88;;;;;;;;;;5046387;28;20049;-69
2023/01/05 06:07:39;;;;;;;6.07;1.60;;;;;;;;;;5045130;28;20098;-69
2023/01/05 06:10:05;;;;;;;5.60;1.42;;;;;;;;;;5047443;28;20051;-67
2023/01/05 06:12:32;;;;;;;3.42;1.30;;;;;;;;;;5045464;28;20037;-67
2023/01/05 06:14:59;;;;;;;7.55;1.27;;;;;;;;;;5048894;28;20036;-68
2023/01/05 06:17:25;;;;;;;4.90;1.33;;;;;;;;;;5045701;28;20036;-67
2023/01/05 06:19:52;;;;;;;16.38;2.03;;;;;;;;;;5046679;28;20067;-68
2023/01/05 06:22:19;;;;;;;9.40;1.88;;;;;;;;;;5045482;28;20040;-69
2023/01/05 06:24:45;;;;;;;19.95;1.27;;;;;;;;;;5030711;28;20041;-67
2023/01/05 06:27:12;;;;;;;6.15;1.45;;;;;;;;;;5046081;28;20033;-67
2023/01/05 06:29:39;;;;;;;8.05;1.52;;;;;;;;;;5045058;28;20460;-67
2023/01/05 06:32:05;;;;;;;16.92;1.83;;;;;;;;;;5046069;28;20094;-68
2023/01/05 06:34:32;;;;;;;5.30;1.60;;;;;;;;;;5043659;28;20091;-68
2023/01/05 06:36:59;;;;;;;5.47;2.33;;;;;;;;;;5046370;28;20040;-67
2023/01/05 06:39:26;;;;;;;4.15;1.65;;;;;;;;;;5047654;28;20488;-67
2023/01/05 06:41:53;;;;;;;9.48;1.35;;;;;;;;;;5046464;28;20112;-67
2023/01/05 06:44:19;;;;;;;2.13;0.77;;;;;;;;;;5042637;28;20049;-68
2023/01/05 06:46:47;;;;;;;1.67;0.75;;;;;;;;;;5045856;28;20037;-68
2023/01/05 06:49:13;;;;;;;7.28;1.15;;;;;;;;;;5044628;28;20045;-66
2023/01/05 06:51:40;;;;;;;2.05;0.60;;;;;;;;;;5045626;28;20033;-68
2023/01/05 06:54:07;;;;;;;1.80;0.65;;;;;;;;;;5043356;28;20033;-68
2023/01/05 06:56:34;;;;;;;5.20;1.65;;;;;;;;;;5044504;28;20040;-69
2023/01/05 06:59:01;;;;;;;3.03;1.00;;;;;;;;;;5050215;28;20499;-68
2023/01/05 07:01:27;;;;;;;4.57;1.38;;;;;;;;;;5048565;28;20405;-68
2023/01/05 07:03:54;;;;;;;3.78;1.10;;;;;;;;;;5048377;28;21049;-68
2023/01/05 07:06:21;;;;;;;3.88;1.30;;;;;;;;;;5047421;28;20765;-69
2023/01/05 07:08:48;;;;;;;5.53;1.80;;;;;;;;;;5048481;28;20064;-69
2023/01/05 07:11:14;;;;;;;3.25;1.27;;;;;;;;;;5046692;28;20036;-68
2023/01/05 07:13:41;;;;;;;4.25;1.52;;;;;;;;;;5042489;28;20033;-69
2023/01/05 07:16:07;;;;;;;4.05;1.63;;;;;;;;;;5046594;28;20037;-68
2023/01/05 07:18:34;;;;;;;8.98;0.90;;;;;;;;;;5042345;28;20040;-68
2023/01/05 07:21:01;;;;;;;3.65;1.30;;;;;;;;;;5045190;28;20044;-68
2023/01/05 07:23:28;;;;;;;2.03;0.88;;;;;;;;;;5040916;28;20879;-67
2023/01/05 07:25:55;;;;;;;2.40;0.95;;;;;;;;;;5044324;28;20079;-67
2023/01/05 07:28:22;;;;;;;11.00;1.30;;;;;;;;;;5043847;28;20040;-69
2023/01/05 07:30:52;;;;;;;2.97;1.25;;;;;;;;;;5044883;28;20060;-67
2023/01/05 07:33:19;;;;;;;12.02;2.42;;;;;;;;;;5024122;28;20532;-69
2023/01/05 07:35:45;;;;;;;5.05;1.25;;;;;;;;;;5019884;28;20046;-68
2023/01/05 07:38:12;;;;;;;2.80;1.05;;;;;;;;;;5022594;28;20037;-68
2023/01/05 07:40:38;;;;;;;9.43;1.55;;;;;;;;;;5045307;28;20663;-68
2023/01/05 07:43:05;;;;;;;2.63;1.27;;;;;;;;;;5046482;28;20041;-68
2023/01/05 07:45:32;;;;;;;12.32;1.55;;;;;;;;;;5043810;28;20049;-68
2023/01/05 07:47:59;;;;;;;4.43;1.38;;;;;;;;;;5044470;28;21631;-67
2023/01/05 07:50:26;;;;;;;2.83;1.10;;;;;;;;;;5043400;28;20033;-68
2023/01/05 07:52:52;;;;;;;4.22;1.08;;;;;;;;;;5043808;28;20056;-68
2023/01/05 07:55:19;;;;;;;5.55;1.23;;;;;;;;;;5062275;28;20032;-67
2023/01/05 07:57:46;;;;;;;2.50;0.85;;;;;;;;;;5048134;28;20037;-68
2023/01/05 08:00:13;;;;;;;6.57;1.38;;;;;;;;;;5047345;28;20585;-68
2023/01/05 08:02:41;;;;;;;3.63;0.90;;;;;;;;;;5046108;28;20120;-67
2023/01/05 08:05:07;;;;;;;3.85;0.88;;;;;;;;;;5046289;28;20040;-68
2023/01/05 08:07:37;;;;;;;3.50;1.55;;;;;;;;;;5047393;28;20127;-69
2023/01/05 08:15:34;;;;;;;3.15;1.05;;;;;;;;;;5048171;28;20517;-69
2023/01/05 08:18:00;;;;;;;14.77;0.93;;;;;;;;;;5046784;28;20120;-69
2023/01/05 08:20:27;;;;;;;2.83;1.13;;;;;;;;;;5047784;28;20036;-67
2023/01/05 08:22:54;;;;;;;2.85;1.33;;;;;;;;;;5046013;28;20090;-66
2023/01/05 08:25:21;;;;;;;2.13;0.93;;;;;;;;;;5046716;28;20052;-67
2023/01/05 08:27:47;;;;;;;2.13;0.77;;;;;;;;;;5048474;28;20043;-67
2023/01/05 08:30:14;;;;;;;11.82;1.35;;;;;;;;;;5046434;28;20060;-64
2023/01/05 08:32:43;;;;;;;2.95;0.85;;;;;;;;;;5045724;28;20041;-65
2023/01/05 08:35:10;;;;;;;2.65;0.95;;;;;;;;;;5045987;28;20036;-66
2023/01/05 08:37:38;;;;;;;1.33;0.57;;;;;;;;;;5045826;28;20041;-66
2023/01/05 08:40:05;;;;;;;4.38;0.95;;;;;;;;;;5062758;28;20666;-68
2023/01/05 08:42:32;;;;;;;3.83;1.23;;;;;;;;;;5046731;28;20132;-67
2023/01/05 08:44:58;;;;;;;1.65;0.82;;;;;;;;;;5046669;28;20049;-68
2023/01/05 08:47:27;;;;;;;14.38;1.25;;;;;;;;;;5044862;28;20623;-69
2023/01/05 08:49:54;;;;;;;7.63;0.98;;;;;;;;;;5061703;28;20040;-67
2023/01/05 08:52:22;;;;;;;2.42;0.95;;;;;;;;;;5048480;28;20049;-66
2023/01/05 08:54:49;;;;;;;6.28;1.48;;;;;;;;;;5045428;28;20508;-66
2023/01/05 08:57:15;;;;;;;5.78;1.58;;;;;;;;;;5046433;28;20055;-66
2023/01/05 08:59:42;;;;;;;2.10;0.80;;;;;;;;;;5045507;28;20048;-68
2023/01/05 09:02:11;;;;;;;2.05;0.90;;;;;;;;;;5050211;28;20608;-67
2023/01/05 09:04:37;;;;;;;2.50;0.95;;;;;;;;;;5048141;28;20047;-69
2023/01/05 09:07:04;;;;;;;1.77;0.63;;;;;;;;;;5046460;28;20032;-68
2023/01/05 09:09:31;;;;;;;2.40;0.95;;;;;;;;;;5043865;28;20498;-68
2023/01/05 09:11:57;;;;;;;1.63;0.65;;;;;;;;;;5045840;28;20075;-69
2023/01/05 09:14:24;;;;;;;3.03;1.27;;;;;;;;;;5045616;28;20072;-69
2023/01/05 09:16:51;;;;;;;3.03;1.33;;;;;;;;;;5045470;28;20071;-70
2023/01/05 09:19:17;;;;;;;2.13;0.85;;;;;;;;;;5046781;28;20723;-69
2023/01/05 09:21:44;;;;;;;5.43;1.20;;;;;;;;;;5046366;28;20045;-69
2023/01/05 09:24:11;;;;;;;1.42;0.60;;;;;;;;;;5044808;28;20086;-69
2023/01/05 09:26:39;;;;;;;4.75;1.00;;;;;;;;;;5046031;28;20763;-66
2023/01/05 09:29:05;;;;;;;1.77;0.75;;;;;;;;;;5047403;28;20406;-68
2023/01/05 09:31:33;;;;;;;3.75;1.25;;;;;;;;;;5050116;28;20033;-68
2023/01/05 09:33:59;;;;;;;3.88;1.00;;;;;;;;;;5045768;28;20496;-66
2023/01/05 09:36:26;;;;;;;4.13;0.85;;;;;;;;;;5046436;28;20045;-67
2023/01/05 09:38:55;;;;;;;1.27;0.70;;;;;;;;;;5046740;28;20712;-67
2023/01/05 09:41:28;;;;;;;2.88;0.60;;;;;;;;;;5046604;28;20059;-67
2023/01/05 09:43:59;;;;;;;13.45;1.05;;;;;;;;;;5046047;28;20505;-66
2023/01/05 09:46:38;;;;;;;2.28;0.90;;;;;;;;;;5057971;28;20045;-67
2023/01/05 09:49:06;;;;;;;0.40;0.40;;;;;;;;;;5046246;28;20044;-67
2023/01/05 09:51:34;;;;;;;0.95;0.52;;;;;;;;;;5047115;28;20048;-68
2023/01/05 09:54:01;;;;;;;1.23;0.50;;;;;;;;;;5047105;28;20063;-67
2023/01/05 09:56:30;;;;;;;1.02;0.60;;;;;;;;;;5044661;28;20344;-69
2023/01/05 09:59:35;;;;;;;1.33;0.70;;;;;;;;;;5046943;28;20098;-70
2023/01/05 10:02:14;;;;;;;2.08;0.70;;;;;;;;;;4987088;28;20043;-65
2023/01/05 10:04:41;;;;;;;1.85;0.80;;;;;;;;;;5021139;28;20449;-68
2023/01/05 10:07:08;;;;;;;5.10;1.08;;;;;;;;;;5022417;28;20087;-67
2023/01/05 10:09:38;;;;;;;2.42;0.88;;;;;;;;;;5023106;28;20037;-68
2023/01/05 10:15:08;;;;;;;1.33;0.82;;;;;;;;;;5021954;28;20670;-67
2023/01/05 10:17:38;;;;;;;5.53;1.15;;;;;;;;;;5022027;28;20053;-67
2023/01/05 10:20:15;;;;;;;2.80;1.17;;;;;;;;;;5021504;28;20076;-68
2023/01/05 10:22:58;;;;;;;1.20;0.60;;;;;;;;;;5021508;28;20037;-67
2023/01/05 10:25:25;;;;;;;3.85;1.65;;;;;;;;;;5022931;28;20048;-69
2023/01/05 10:28:02;;;;;;;9.98;1.30;;;;;;;;;;5021932;28;20085;-68
2023/01/05 10:30:50;;;;;;;1.48;0.63;;;;;;;;;;5021348;28;20574;-67
2023/01/05 10:33:26;;;;;;;1.45;0.65;;;;;;;;;;5034804;28;20743;-68
2023/01/05 10:35:58;;;;;;;2.60;0.88;;;;;;;;;;5043789;28;20496;-68
2023/01/05 10:38:34;;;;;;;1.90;0.82;;;;;;;;;;5044170;28;20045;-68
2023/01/05 10:41:01;;;;;;;1.52;0.55;;;;;;;;;;5045880;28;20243;-68
2023/01/05 10:43:47;;;;;;;2.70;1.13;;;;;;;;;;5040886;28;20055;-67
2023/01/05 10:46:17;;;;;;;1.65;0.65;;;;;;;;;;5042347;28;20048;-68
2023/01/05 10:48:44;;;;;;;1.58;0.65;;;;;;;;;;5040728;28;20040;-68
2023/01/05 10:51:11;;;;;;;1.60;0.68;;;;;;;;;;5029037;28;20049;-69
2023/01/05 10:53:38;;;;;;;2.00;0.85;;;;;;;;;;5023060;28;20036;-66
2023/01/05 10:56:07;;;;;;;9.82;1.38;;;;;;;;;;5042559;28;20045;-68
2023/01/05 10:58:34;;;;;;;1.33;0.60;;;;;;;;;;5040379;28;20083;-66
2023/01/05 11:01:04;;;;;;;1.60;0.77;;;;;;;;;;5042408;28;20049;-67
2023/01/05 11:03:41;;;;;;;2.63;0.88;;;;;;;;;;5040118;28;20049;-67
2023/01/05 11:06:08;;;;;;;1.67;0.73;;;;;;;;;;5041684;28;20052;-69
2023/01/05 11:08:36;;;;;;;2.40;1.02;;;;;;;;;;5040750;28;20047;-68
2023/01/05 11:11:06;;;;;;;1.85;0.98;;;;;;;;;;5043179;28;20178;-69
2023/01/05 11:13:35;;;;;;;2.00;0.88;;;;;;;;;;5027246;28;20146;-68
2023/01/05 11:16:11;;;;;;;1.52;0.88;;;;;;;;;;5031858;28;20091;-68
2023/01/05 11:18:49;;;;;;;1.35;0.57;;;;;;;;;;5044517;28;20091;-69
2023/01/05 11:21:19;;;;;;;1.42;0.68;;;;;;;;;;5043175;28;20049;-68
2023/01/05 11:23:53;;;;;;;2.00;0.93;;;;;;;;;;5044713;28;20124;-69
2023/01/05 11:26:42;;;;;;;0.90;0.60;;;;;;;;;;5044402;28;20131;-68
2023/01/05 11:29:09;;;;;;;1.65;0.90;;;;;;;;;;5047340;28;20586;-68
2023/01/05 11:31:36;;;;;;;0.88;0.57;;;;;;;;;;5063694;28;20800;-68
2023/01/05 11:34:18;;;;;;;2.15;1.23;;;;;;;;;;5049300;28;20045;-68
2023/01/05 11:36:51;;;;;;;0.57;0.47;;;;;;;;;;5048016;28;20045;-69
2023/01/05 11:39:17;;;;;;;;;;;;;;;;;;5057298;28;20028;-70
2023/01/05 11:41:44;;;;;;;4.25;0.68;;;;;;;;;;5025492;28;19921;-70
2023/01/05 11:44:19;;;;;;;5.60;0.97;;;;;;;;;;5026188;28;20072;-69
2023/01/05 11:46:47;;;;;;;2.17;0.88;;;;;;;;;;5054194;28;20128;-69
2023/01/05 11:49:18;;;;;;;1.42;0.70;;;;;;;;;;5047678;28;20037;-69
2023/01/05 11:51:44;;;;;;;0.73;0.40;;;;;;;;;;5048776;28;20049;-68
2023/01/05 11:54:46;;;;;;;1.05;0.70;;;;;;;;;;5049199;28;20389;-67
2023/01/05 11:57:17;;;;;;;2.15;1.08;;;;;;;;;;5000913;28;20120;-67
2023/01/05 11:59:45;;;;;;;1.65;0.93;;;;;;;;;;5027286;28;20044;-69
2023/01/05 12:02:39;;;;;;;1.35;0.77;;;;;;;;;;5027360;28;20041;-68
2023/01/05 12:05:27;;;;;;;1.33;0.73;;;;;;;;;;5033836;28;20057;-69
2023/01/05 12:08:20;;;;;;;1.13;0.52;;;;;;;;;;5036253;28;20036;-70
2023/01/05 12:10:56;;;;;;;0.47;0.30;;;;;;;;;;5024462;28;20048;-70
2023/01/05 12:13:23;;;;;;;1.88;0.80;;;;;;;;;;5027522;28;20118;-69
2023/01/05 12:16:13;;;;;;;0.65;0.50;;;;;;;;;;5025399;28;20041;-68
2023/01/05 12:18:47;;;;;;;0.65;0.50;;;;;;;;;;5034981;28;20894;-68
2023/01/05 12:21:20;;;;;;;2.05;0.85;;;;;;;;;;5026881;28;20041;-69
2023/01/05 12:24:02;;;;;;;1.05;0.50;;;;;;;;;;5039704;28;20036;-70
2023/01/05 12:26:38;;;;;;;1.90;0.73;;;;;;;;;;5045862;28;20153;-69
2023/01/05 12:29:11;;;;;;;2.75;0.73;;;;;;;;;;5051436;28;20036;-69
2023/01/05 12:31:40;;;;;;;2.28;0.90;;;;;;;;;;5047263;28;20048;-68
2023/01/05 12:34:19;;;;;;;1.48;0.90;;;;;;;;;;5047926;28;20047;-67
2023/01/05 12:36:46;;;;;;;1.92;0.80;;;;;;;;;;5045870;28;20036;-70
2023/01/05 12:39:28;;;;;;;4.72;1.30;;;;;;;;;;5047211;28;20029;-69
2023/01/05 12:42:15;;;;;;;1.60;0.70;;;;;;;;;;5041079;28;20028;-69
2023/01/05 12:44:50;;;;;;;4.97;0.63;;;;;;;;;;5045447;28;20609;-68
2023/01/05 12:47:35;;;;;;;2.10;0.88;;;;;;;;;;5046856;28;20444;-69
2023/01/05 12:50:07;;;;;;;1.92;0.77;;;;;;;;;;5046654;28;20044;-67
2023/01/05 12:52:36;;;;;;;1.48;0.90;;;;;;;;;;5031759;28;20080;-67
2023/01/05 12:55:21;;;;;;;1.58;0.73;;;;;;;;;;5048768;28;20397;-67
2023/01/05 12:57:58;;;;;;;1.35;0.60;;;;;;;;;;5046518;28;20064;-69
2023/01/05 13:00:26;;;;;;;0.73;0.55;;;;;;;;;;5060211;28;20112;-69
2023/01/05 13:03:41;;;;;;;0.43;0.30;;;;;;;;;;5040204;28;20043;-69
2023/01/05 13:06:16;;;;;;;0.82;0.50;;;;;;;;;;5022340;28;20120;-69
2023/01/05 13:09:09;;;;;;;10.68;0.98;;;;;;;;;;5041395;28;20033;-69
2023/01/05 13:11:44;;;;;;;0.60;0.35;;;;;;;;;;5025876;28;20078;-68
2023/01/05 13:14:14;;;;;;;4.70;0.98;;;;;;;;;;5041565;28;20041;-69
2023/01/05 13:16:42;;;;;;;4.22;1.27;;;;;;;;;;5036392;28;20633;-69
2023/01/05 13:19:20;;;;;;;2.67;1.00;;;;;;;;;;5040490;28;20068;-70
2023/01/05 13:21:47;;;;;;;2.55;0.95;;;;;;;;;;5040288;28;20123;-68
2023/01/05 13:24:16;;;;;;;2.70;1.10;;;;;;;;;;5040767;28;20047;-67
2023/01/05 13:26:43;;;;;;;0.47;0.40;;;;;;;;;;5039472;28;20079;-68
2023/01/05 13:29:21;;;;;;;2.38;1.02;;;;;;;;;;5041274;28;20127;-69
2023/01/05 13:32:06;;;;;;;2.13;1.20;;;;;;;;;;5059373;28;20040;-66
2023/01/05 13:34:56;;;;;;;1.73;0.90;;;;;;;;;;5062270;28;20036;-68
2023/01/05 13:37:41;;;;;;;4.32;1.52;;;;;;;;;;5055195;28;20195;-68
2023/01/05 13:40:27;;;;;;;1.50;0.75;;;;;;;;;;5062477;28;20074;-67
2023/01/05 13:43:12;;;;;;;3.60;0.95;;;;;;;;;;5042225;28;20032;-65
2023/01/05 13:45:57;;;;;;;2.60;1.35;;;;;;;;;;5060641;28;20105;-66
2023/01/05 13:48:46;;;;;;;1.00;0.60;;;;;;;;;;5061542;28;20362;-66
2023/01/05 13:51:28;;;;;;;3.90;1.27;;;;;;;;;;5061389;28;20162;-66
2023/01/05 13:53:56;;;;;;;2.50;1.10;;;;;;;;;;5062896;28;20032;-66
2023/01/05 13:56:25;;;;;;;2.72;0.68;;;;;;;;;;5062257;28;21237;-67
2023/01/05 13:58:58;;;;;;;4.38;0.85;;;;;;;;;;5062238;28;20032;-66
2023/01/05 14:01:35;;;;;;;2.70;1.38;;;;;;;;;;5061191;28;20040;-66
2023/01/05 14:04:03;;;;;;;1.15;0.57;;;;;;;;;;5062212;28;20044;-67
2023/01/05 14:06:31;;;;;;;5.45;1.50;;;;;;;;;;5060229;28;20120;-68
2023/01/05 14:09:00;;;;;;;1.58;1.05;;;;;;;;;;5059047;28;20114;-67
2023/01/05 14:11:27;;;;;;;1.55;0.88;;;;;;;;;;5042723;28;20044;-66
2023/01/05 14:13:58;;;;;;;3.08;1.05;;;;;;;;;;5044956;28;20040;-67
2023/01/05 14:16:37;;;;;;;1.27;0.73;;;;;;;;;;5044632;28;20037;-67
2023/01/05 14:19:09;;;;;;;0.75;0.50;;;;;;;;;;5038487;28;20631;-67
2023/01/05 14:21:58;;;;;;;1.95;0.85;;;;;;;;;;5023500;28;20041;-67
2023/01/05 14:24:28;;;;;;;12.70;1.20;;;;;;;;;;5024040;28;20126;-68
2023/01/05 14:27:02;;;;;;;1.90;0.90;;;;;;;;;;5024659;28;20033;-67
2023/01/05 14:29:49;;;;;;;1.25;0.73;;;;;;;;;;5023528;28;20040;-67
2023/01/05 14:32:30;;;;;;;0.82;0.43;;;;;;;;;;5023224;28;20041;-66
2023/01/05 14:35:08;;;;;;;4.05;1.48;;;;;;;;;;5024997;28;20359;-67
2023/01/05 14:37:55;;;;;;;2.92;1.55;;;;;;;;;;5023240;28;20524;-69
2023/01/05 14:40:42;;;;;;;2.78;1.10;;;;;;;;;;5020004;28;20072;-68
2023/01/05 14:43:21;;;;;;;2.03;0.95;;;;;;;;;;5057359;28;20108;-67
2023/01/05 14:46:00;;;;;;;2.63;1.10;;;;;;;;;;5041927;28;21343;-67
2023/01/05 14:48:29;;;;;;;2.40;1.48;;;;;;;;;;5044732;28;20078;-67
2023/01/05 14:51:25;;;;;;;12.75;0.47;;;;;;;;;;5037134;28;20045;-69
2023/01/05 14:53:55;;;;;;;1.48;1.25;;;;;;;;;;5029175;28;20041;-68
2023/01/05 14:56:22;;;;;;;4.63;1.42;;;;;;;;;;5023729;28;20037;-70
2023/01/05 14:58:59;;;;;;;3.55;1.05;;;;;;;;;;5024624;28;20061;-68
2023/01/05 15:01:49;;;;;;;1.83;0.98;;;;;;;;;;5020959;28;20052;-71
2023/01/05 15:04:19;;;;;;;5.65;1.83;;;;;;;;;;5025317;28;20041;-66
2023/01/05 15:06:51;;;;;;;6.45;2.53;;;;;;;;;;5036202;28;20042;-70
2023/01/05 15:09:43;;;;;;;3.22;1.95;;;;;;;;;;5027630;28;20041;-67
2023/01/05 15:12:22;;;;;;;3.05;1.10;;;;;;;;;;5032166;28;20925;-70
2023/01/05 15:15:07;;;;;;;2.05;0.98;;;;;;;;;;5033930;28;20491;-68
2023/01/05 15:17:40;;;;;;;19.95;1.83;;;;;;;;;;5027735;28;20692;-67
2023/01/05 15:20:37;;;;;;;1.27;0.75;;;;;;;;;;5028950;28;20041;-69
2023/01/05 15:23:30;;;;;;;3.40;1.23;;;;;;;;;;5043353;28;20087;-67
2023/01/05 15:26:12;;;;;;;6.57;1.07;;;;;;;;;;5027785;28;20807;-68
2023/01/05 15:28:50;;;;;;;2.85;1.63;;;;;;;;;;5041449;28;21670;-69
2023/01/05 15:31:35;;;;;;;4.47;1.55;;;;;;;;;;5031689;28;20160;-69
2023/01/05 15:34:21;;;;;;;3.08;1.42;;;;;;;;;;5031750;28;20045;-69
2023/01/05 15:36:50;;;;;;;2.40;1.20;;;;;;;;;;5026532;28;20045;-68
2023/01/05 15:39:28;;;;;;;5.15;1.75;;;;;;;;;;5027572;28;20033;-68